Time;durP1;ratioP1;P1;durP2;ratioP2;P2;SDS_P1;SDS_P2;PMS_P1;PMS_P2;Temp;Humidity;BMP_temperature;BMP_pressure;BME280_temperature;BME280_humidity;BME280_pressure;Samples;Min_cycle;Max_cycle;Signal;HPM_P1;HPM_P2
2022/09/29 00:02:37;;;;;;;14.20;11.33;;;8.00;99.90;;;;;;5081453;28;20456;-75
2022/09/29 00:05:54;;;;;;;13.23;10.40;;;8.00;99.90;;;;;;5070634;28;20565;-75
2022/09/29 00:08:54;;;;;;;12.30;10.83;;;8.00;99.90;;;;;;5071201;28;20464;-75
2022/09/29 00:11:57;;;;;;;13.57;10.67;;;7.90;99.90;;;;;;5086881;28;20647;-75
2022/09/29 00:14:56;;;;;;;14.90;11.50;;;7.90;99.90;;;;;;5075733;28;20448;-75
2022/09/29 00:18:11;;;;;;;12.33;10.47;;;7.80;99.90;;;;;;5078556;28;20477;-75
2022/09/29 00:21:22;;;;;;;13.93;11.03;;;7.80;99.90;;;;;;4993037;28;20984;-76
2022/09/29 00:24:18;;;;;;;13.23;11.27;;;7.80;99.90;;;;;;5003660;28;20594;-75
2022/09/29 00:27:43;;;;;;;13.87;11.33;;;7.80;99.90;;;;;;5024952;22;20509;-75
2022/09/29 00:30:46;;;;;;;12.30;10.50;;;7.70;99.90;;;;;;5032811;28;20901;-74
2022/09/29 00:34:11;;;;;;;13.70;11.47;;;7.70;99.90;;;;;;5032310;28;20537;-73
2022/09/29 00:37:30;;;;;;;13.03;11.67;;;7.70;99.90;;;;;;5020938;28;20493;-74
2022/09/29 00:40:38;;;;;;;12.50;11.23;;;7.70;99.90;;;;;;5027338;28;20458;-74
2022/09/29 00:44:04;;;;;;;13.50;10.60;;;7.60;99.90;;;;;;5023630;28;20836;-75
2022/09/29 00:47:06;;;;;;;13.40;10.70;;;7.60;99.90;;;;;;5022614;28;20483;-74
2022/09/29 00:50:14;;;;;;;13.40;12.00;;;7.60;99.90;;;;;;5020218;28;21049;-75
2022/09/29 00:53:29;;;;;;;14.30;11.07;;;7.50;99.90;;;;;;5021713;28;21405;-73
2022/09/29 00:56:29;;;;;;;14.67;9.87;;;7.50;99.90;;;;;;5020138;28;21126;-76
2022/09/29 00:59:27;;;;;;;13.10;10.87;;;7.50;99.90;;;;;;5023017;28;20462;-74
2022/09/29 01:02:39;;;;;;;12.33;10.87;;;7.40;99.90;;;;;;5027637;28;20451;-73
2022/09/29 01:05:34;;;;;;;12.07;10.03;;;7.40;99.90;;;;;;5022084;28;20473;-74
2022/09/29 01:11:56;;;;;;;;;;;;;;;;;;;;;
2022/09/29 01:18:18;;;;;;;11.30;9.63;;;7.30;99.90;;;;;;5016127;28;20565;-75
2022/09/29 01:21:49;;;;;;;11.40;9.50;;;7.30;99.90;;;;;;5029269;28;20817;-73
2022/09/29 01:25:52;;;;;;;12.73;11.30;;;7.20;99.90;;;;;;5022433;28;20465;-75
2022/09/29 01:29:15;;;;;;;12.67;10.50;;;7.20;99.90;;;;;;5028515;28;20478;-74
2022/09/29 01:32:37;;;;;;;12.07;10.40;;;7.20;99.90;;;;;;5033176;28;20596;-73
2022/09/29 01:36:07;;;;;;;13.20;11.07;;;7.20;99.90;;;;;;5024285;28;20542;-77
2022/09/29 01:39:34;;;;;;;12.77;9.90;;;7.20;99.90;;;;;;5035808;28;20442;-75
2022/09/29 01:43:04;;;;;;;;;;;;;;;;;;;;;
2022/09/29 01:46:29;;;;;;;11.87;9.93;;;7.10;99.90;;;;;;5039437;28;20497;-74
2022/09/29 01:49:42;;;;;;;11.43;10.20;;;7.10;99.90;;;;;;5036573;28;20955;-75
2022/09/29 01:52:47;;;;;;;14.50;10.57;;;7.10;99.90;;;;;;5032446;28;20835;-73
2022/09/29 01:56:05;;;;;;;11.27;9.63;;;7.00;99.90;;;;;;5038843;28;20504;-75
2022/09/29 01:59:18;;;;;;;11.27;9.47;;;7.00;99.90;;;;;;5039397;28;20825;-73
2022/09/29 02:02:42;;;;;;;;;;;;;;;;;;;;;
2022/09/29 02:05:51;;;;;;;11.03;9.57;;;7.00;99.90;;;;;;5037747;28;20486;-73
2022/09/29 02:08:55;;;;;;;11.90;10.10;;;7.00;99.90;;;;;;5037039;28;20470;-73
2022/09/29 02:12:06;;;;;;;12.20;9.60;;;6.90;99.90;;;;;;5039554;28;20480;-73
2022/09/29 02:15:13;;;;;;;13.87;10.30;;;6.90;99.90;;;;;;5042471;28;20958;-70
2022/09/29 02:18:24;;;;;;;12.87;9.70;;;6.90;99.90;;;;;;5041016;28;20891;-74
2022/09/29 02:21:16;;;;;;;12.90;10.40;;;6.90;99.90;;;;;;5042870;28;20821;-73
2022/09/29 02:24:31;;;;;;;12.10;9.53;;;6.90;99.90;;;;;;5037634;28;20545;-72
2022/09/29 02:27:40;;;;;;;11.40;9.23;;;6.80;99.90;;;;;;5055119;28;20484;-72
2022/09/29 02:30:57;;;;;;;9.77;8.70;;;6.80;99.90;;;;;;5055042;28;20485;-73
2022/09/29 02:34:21;;;;;;;12.17;9.90;;;6.80;99.90;;;;;;5053096;28;20965;-73
2022/09/29 02:37:42;;;;;;;10.80;9.40;;;6.80;99.90;;;;;;5033946;28;20485;-73
2022/09/29 02:40:53;;;;;;;12.43;9.63;;;6.80;99.90;;;;;;5040914;28;20456;-74
2022/09/29 02:47:50;;;;;;;11.20;9.50;;;6.70;99.90;;;;;;5039500;28;20493;-74
2022/09/29 02:51:18;;;;;;;10.30;8.90;;;6.70;99.90;;;;;;5040714;28;20469;-72
2022/09/29 02:54:50;;;;;;;13.33;10.17;;;6.70;99.90;;;;;;5034832;28;20939;-74
2022/09/29 02:58:03;;;;;;;11.63;9.37;;;6.70;99.90;;;;;;5026838;28;20528;-72
2022/09/29 03:01:15;;;;;;;13.27;9.90;;;6.70;99.90;;;;;;5029978;28;20454;-75
2022/09/29 03:04:18;;;;;;;10.83;9.73;;;6.70;99.90;;;;;;5022144;28;20458;-73
2022/09/29 03:07:16;;;;;;;13.33;10.93;;;6.60;99.90;;;;;;5036630;28;20490;-73
2022/09/29 03:10:22;;;;;;;10.40;9.30;;;6.60;99.90;;;;;;5043923;28;20451;-73
2022/09/29 03:13:29;;;;;;;11.27;9.50;;;6.60;99.90;;;;;;5038752;28;20450;-73
2022/09/29 03:16:46;;;;;;;10.70;9.07;;;6.60;99.90;;;;;;5040680;28;20623;-72
2022/09/29 03:19:58;;;;;;;10.30;9.20;;;6.60;99.90;;;;;;5027604;28;20451;-74
2022/09/29 03:26:19;;;;;;;11.50;9.30;;;6.50;99.90;;;;;;5022161;28;20492;-72
2022/09/29 03:29:19;;;;;;;10.77;8.87;;;6.50;99.90;;;;;;5027997;28;20486;-76
2022/09/29 03:35:23;;;;;;;9.50;8.50;;;6.50;99.90;;;;;;5027452;28;20500;-73
2022/09/29 03:38:27;;;;;;;13.50;9.97;;;6.50;99.90;;;;;;5035026;28;20454;-73
2022/09/29 03:42:00;;;;;;;11.27;9.50;;;6.50;99.90;;;;;;5031580;28;20451;-73
2022/09/29 03:45:00;;;;;;;10.87;9.03;;;6.50;99.90;;;;;;5032326;28;20444;-74
2022/09/29 03:48:07;;;;;;;11.13;9.50;;;6.50;99.90;;;;;;5025064;28;20676;-73
2022/09/29 03:51:19;;;;;;;9.43;8.03;;;6.40;99.90;;;;;;5029218;28;20451;-76
2022/09/29 03:54:26;;;;;;;;;;;;;;;;;;;;;
2022/09/29 04:00:58;;;;;;;10.23;9.03;;;6.40;99.90;;;;;;5034411;28;20469;-76
2022/09/29 04:04:31;;;;;;;10.37;8.70;;;6.40;99.90;;;;;;5039465;28;21051;-73
2022/09/29 04:07:35;;;;;;;11.13;9.10;;;6.40;99.90;;;;;;5036519;28;20529;-73
2022/09/29 04:10:40;;;;;;;10.23;9.13;;;6.40;99.90;;;;;;5035052;28;20465;-75
2022/09/29 04:13:45;;;;;;;10.97;9.50;;;6.40;99.90;;;;;;5041554;28;20454;-75
2022/09/29 04:16:48;;;;;;;10.50;9.37;;;6.40;99.90;;;;;;5055213;28;20568;-74
2022/09/29 04:20:02;;;;;;;10.53;9.07;;;6.40;99.90;;;;;;5063756;28;20534;-74
2022/09/29 04:23:03;;;;;;;11.70;9.83;;;6.40;99.90;;;;;;5058988;28;20461;-73
2022/09/29 04:25:56;;;;;;;11.03;9.87;;;6.40;99.90;;;;;;5049294;28;20467;-72
2022/09/29 04:28:57;;;;;;;12.20;10.03;;;6.40;99.90;;;;;;5027714;28;20565;-73
2022/09/29 04:32:04;;;;;;;11.93;10.10;;;6.40;99.90;;;;;;5029299;28;20552;-74
2022/09/29 04:35:17;;;;;;;14.30;12.03;;;6.40;99.90;;;;;;5034463;28;20611;-72
2022/09/29 04:38:11;;;;;;;14.30;11.40;;;6.50;99.90;;;;;;5026376;28;20482;-74
2022/09/29 04:44:47;;;;;;;14.67;12.20;;;6.60;99.90;;;;;;5027588;28;20458;-73
2022/09/29 04:48:06;;;;;;;15.60;12.40;;;6.60;99.90;;;;;;5029617;28;20861;-73
2022/09/29 04:50:58;;;;;;;15.97;12.73;;;6.70;99.90;;;;;;5028024;28;21350;-73
2022/09/29 04:54:10;;;;;;;15.80;14.00;;;6.70;99.90;;;;;;5025712;28;20458;-73
2022/09/29 04:57:12;;;;;;;19.50;14.90;;;6.70;99.90;;;;;;5046383;28;20492;-72
2022/09/29 05:00:09;;;;;;;17.57;14.20;;;6.70;99.90;;;;;;5052919;28;20461;-74
2022/09/29 05:03:33;;;;;;;15.17;12.90;;;6.80;99.90;;;;;;5049927;28;20484;-74
2022/09/29 05:06:41;;;;;;;18.90;14.93;;;6.80;99.90;;;;;;5051788;28;20611;-75
2022/09/29 05:09:58;;;;;;;18.90;16.03;;;6.90;99.90;;;;;;5047208;28;20665;-73
2022/09/29 05:13:07;;;;;;;18.50;14.90;;;6.90;99.90;;;;;;5049753;28;20458;-74
2022/09/29 05:16:10;;;;;;;16.80;14.33;;;7.00;99.90;;;;;;5041328;28;21196;-74
2022/09/29 05:19:06;;;;;;;17.27;13.60;;;7.00;99.90;;;;;;5041569;28;20457;-74
2022/09/29 05:22:24;;;;;;;19.20;14.47;;;7.00;99.90;;;;;;5054850;28;20469;-73
2022/09/29 05:25:34;;;;;;;18.80;15.30;;;7.00;99.90;;;;;;5051244;28;21031;-75
2022/09/29 05:28:56;;;;;;;21.00;15.97;;;7.00;99.90;;;;;;5058747;28;20941;-72
2022/09/29 05:32:08;;;;;;;19.57;16.77;;;7.00;99.90;;;;;;5060658;28;20532;-73
2022/09/29 05:35:20;;;;;;;21.60;15.87;;;7.00;99.90;;;;;;5050601;28;20451;-72
2022/09/29 05:38:15;;;;;;;18.47;15.33;;;7.00;99.90;;;;;;5056265;28;20477;-76
2022/09/29 05:41:22;;;;;;;;;;;;;;;;;;;;;
2022/09/29 05:44:28;;;;;;;19.30;15.50;;;7.10;99.90;;;;;;5053844;28;20473;-72
2022/09/29 05:47:43;;;;;;;19.77;16.37;;;7.10;99.90;;;;;;5059905;28;20505;-72
2022/09/29 05:51:16;;;;;;;22.60;17.27;;;7.20;99.90;;;;;;5057611;28;20984;-72
2022/09/29 05:54:29;;;;;;;21.10;17.00;;;7.20;99.90;;;;;;5065837;28;20467;-73
2022/09/29 05:57:46;;;;;;;21.90;17.27;;;7.20;99.90;;;;;;5058726;28;21008;-71
2022/09/29 06:00:39;;;;;;;19.47;16.10;;;7.30;99.90;;;;;;5056752;28;20460;-72
2022/09/29 06:03:32;;;;;;;23.23;17.57;;;7.30;99.90;;;;;;5056110;28;20480;-73
2022/09/29 06:06:26;;;;;;;21.00;17.37;;;7.40;99.90;;;;;;5043777;28;20497;-73
2022/09/29 06:09:24;;;;;;;22.10;18.00;;;7.40;99.90;;;;;;5036887;28;20480;-73
2022/09/29 06:12:12;;;;;;;21.43;17.77;;;7.50;99.90;;;;;;5041545;28;20851;-73
2022/09/29 06:15:09;;;;;;;21.43;17.33;;;7.50;99.90;;;;;;5037689;28;20936;-76
2022/09/29 06:17:59;;;;;;;23.40;18.03;;;7.60;99.90;;;;;;5051782;28;20463;-73
2022/09/29 06:20:51;;;;;;;23.07;18.07;;;7.60;99.90;;;;;;5041229;28;20459;-75
2022/09/29 06:23:40;;;;;;;20.90;17.47;;;7.60;99.90;;;;;;5047081;28;20997;-74
2022/09/29 06:26:40;;;;;;;20.10;18.00;;;7.70;99.90;;;;;;5053801;22;20574;-70
2022/09/29 06:29:31;;;;;;;20.60;17.30;;;7.70;99.90;;;;;;5042096;28;20474;-70
2022/09/29 06:32:22;;;;;;;20.70;18.03;;;7.80;99.90;;;;;;5042635;28;20950;-69
2022/09/29 06:38:30;;;;;;;23.57;18.30;;;7.90;99.90;;;;;;5020854;28;20452;-69
2022/09/29 06:41:28;;;;;;;20.80;17.80;;;7.90;99.90;;;;;;5022302;28;20463;-69
2022/09/29 06:44:19;;;;;;;19.90;17.20;;;8.00;99.90;;;;;;5023751;28;20979;-69
2022/09/29 06:47:10;;;;;;;20.40;15.77;;;8.00;99.90;;;;;;5028114;28;20506;-69
2022/09/29 06:50:04;;;;;;;20.07;17.87;;;8.00;99.90;;;;;;5029634;28;20586;-69
2022/09/29 06:53:10;;;;;;;;;;;;;;;;;;;;;
2022/09/29 06:56:21;;;;;;;21.27;16.30;;;8.10;99.90;;;;;;5022769;28;20573;-70
2022/09/29 06:59:15;;;;;;;20.13;17.10;;;8.20;99.90;;;;;;5019400;28;20444;-69
2022/09/29 07:02:09;;;;;;;22.77;17.80;;;8.20;99.90;;;;;;5027817;28;20452;-69
2022/09/29 07:05:00;;;;;;;21.90;17.50;;;8.20;99.90;;;;;;5018427;28;20446;-69
2022/09/29 07:07:54;;;;;;;20.50;16.50;;;8.30;99.90;;;;;;5023981;28;20475;-69
2022/09/29 07:10:56;;;;;;;20.40;16.70;;;8.30;99.90;;;;;;5020158;28;20722;-68
2022/09/29 07:13:50;;;;;;;22.27;17.23;;;8.30;99.90;;;;;;5024075;28;20455;-68
2022/09/29 07:16:44;;;;;;;23.17;18.80;;;8.40;99.90;;;;;;5024195;28;20845;-68
2022/09/29 07:19:32;;;;;;;21.60;18.07;;;8.50;99.90;;;;;;5024494;28;20471;-68
2022/09/29 07:22:22;;;;;;;19.80;16.63;;;8.50;99.90;;;;;;5027559;28;20464;-69
2022/09/29 07:25:11;;;;;;;19.10;16.50;;;8.50;99.90;;;;;;5025295;28;20451;-69
2022/09/29 07:28:22;;;;;;;20.23;18.03;;;8.60;99.90;;;;;;5018397;28;20470;-69
2022/09/29 07:31:17;;;;;;;21.27;15.20;;;8.60;99.90;;;;;;5021470;28;20681;-69
2022/09/29 07:34:11;;;;;;;18.40;16.50;;;8.70;99.90;;;;;;5026173;28;20971;-69
2022/09/29 07:37:04;;;;;;;17.10;15.40;;;8.80;99.90;;;;;;5021662;28;20486;-69
2022/09/29 07:40:06;;;;;;;19.63;16.40;;;8.80;99.90;;;;;;5026627;28;21283;-69
2022/09/29 07:42:59;;;;;;;18.33;16.43;;;8.80;99.90;;;;;;5015690;28;20464;-69
2022/09/29 07:45:52;;;;;;;17.43;15.53;;;8.90;99.90;;;;;;5024104;28;20480;-69
2022/09/29 07:48:53;;;;;;;17.40;15.30;;;8.90;99.90;;;;;;5019614;28;20456;-69
2022/09/29 07:51:44;;;;;;;18.20;15.60;;;9.00;99.90;;;;;;5021093;28;20479;-69
2022/09/29 07:54:40;;;;;;;17.50;15.03;;;9.10;99.90;;;;;;5024661;28;20463;-70
2022/09/29 07:57:28;;;;;;;17.80;15.90;;;9.10;99.90;;;;;;5038571;28;20478;-70
2022/09/29 08:00:21;;;;;;;22.80;16.50;;;9.10;99.90;;;;;;5035730;28;20472;-70
2022/09/29 08:03:15;;;;;;;20.47;16.43;;;9.10;99.90;;;;;;5039360;28;20830;-69
2022/09/29 08:06:09;;;;;;;19.93;16.40;;;9.20;99.90;;;;;;5042889;28;20493;-69
2022/09/29 08:09:12;;;;;;;21.03;16.80;;;9.20;99.90;;;;;;5042365;28;20530;-69
2022/09/29 08:12:07;;;;;;;18.90;16.90;;;9.20;99.90;;;;;;5036503;28;20472;-70
2022/09/29 08:14:57;;;;;;;18.13;16.27;;;9.20;99.90;;;;;;5039148;28;20454;-70
2022/09/29 08:17:51;;;;;;;18.23;16.43;;;9.20;99.90;;;;;;5021843;28;20483;-70
2022/09/29 08:20:47;;;;;;;18.23;16.33;;;9.20;99.90;;;;;;5023538;28;20432;-70
2022/09/29 08:23:41;;;;;;;16.77;14.97;;;9.30;99.90;;;;;;5023453;28;20479;-70
2022/09/29 08:26:34;;;;;;;17.17;15.30;;;9.30;99.90;;;;;;5033515;28;21009;-69
2022/09/29 08:29:32;;;;;;;17.73;15.83;;;9.40;99.90;;;;;;5038632;28;20980;-70
2022/09/29 08:32:33;;;;;;;17.17;15.37;;;9.40;99.90;;;;;;5037743;28;20461;-70
2022/09/29 08:35:31;;;;;;;17.67;15.50;;;9.50;99.90;;;;;;5040996;28;20481;-69
2022/09/29 08:38:33;;;;;;;16.33;14.63;;;9.50;99.90;;;;;;5040354;28;20474;-70
2022/09/29 08:41:50;;;;;;;17.60;15.70;;;9.60;99.90;;;;;;5039104;28;20557;-71
2022/09/29 08:44:47;;;;;;;17.10;15.23;;;9.70;99.90;;;;;;5042518;28;20478;-70
2022/09/29 08:47:45;;;;;;;16.50;14.70;;;9.80;99.90;;;;;;5040971;28;20490;-70
2022/09/29 08:50:40;;;;;;;17.07;15.10;;;9.80;99.90;;;;;;5040895;28;20822;-69
2022/09/29 08:53:35;;;;;;;16.93;15.33;;;9.90;99.90;;;;;;5038905;28;20982;-69
2022/09/29 08:56:26;;;;;;;16.00;14.40;;;10.00;99.90;;;;;;5038620;28;20489;-69
2022/09/29 08:59:27;;;;;;;16.30;14.60;;;10.10;99.90;;;;;;5039525;28;20835;-70
2022/09/29 09:02:58;;;;;;;16.83;13.87;;;10.10;99.90;;;;;;5044141;28;20455;-69
2022/09/29 09:06:03;;;;;;;14.60;13.20;;;10.20;99.90;;;;;;5039565;28;20549;-69
2022/09/29 09:09:26;;;;;;;14.93;13.40;;;10.30;99.90;;;;;;5040680;28;20509;-70
2022/09/29 09:12:54;;;;;;;15.27;13.47;;;10.40;99.90;;;;;;5044745;28;21475;-69
2022/09/29 09:16:05;;;;;;;13.73;12.33;;;10.50;99.90;;;;;;5038214;28;21108;-69
2022/09/29 09:19:20;;;;;;;14.07;12.60;;;10.50;99.90;;;;;;5020952;28;20944;-70
2022/09/29 09:22:20;;;;;;;14.63;13.03;;;10.60;99.90;;;;;;5025041;28;21005;-70
2022/09/29 09:25:28;;;;;;;13.50;12.13;;;10.70;99.90;;;;;;5026006;28;20455;-69
2022/09/29 09:28:26;;;;;;;13.83;12.43;;;10.70;99.90;;;;;;5035400;28;20962;-69
2022/09/29 09:31:24;;;;;;;14.43;13.00;;;10.80;99.90;;;;;;5036314;28;20504;-69
2022/09/29 09:34:17;;;;;;;15.03;13.43;;;10.80;99.90;;;;;;5040368;28;20776;-70
2022/09/29 09:37:19;;;;;;;15.20;13.30;;;10.80;99.90;;;;;;5021843;28;20475;-69
2022/09/29 09:40:20;;;;;;;14.97;13.57;;;10.80;99.90;;;;;;5024025;28;20467;-70
2022/09/29 09:43:14;;;;;;;14.37;12.97;;;10.80;99.90;;;;;;5020959;28;20452;-69
2022/09/29 09:46:11;;;;;;;14.93;13.53;;;10.90;99.90;;;;;;5013598;28;20475;-70
2022/09/29 09:49:21;;;;;;;14.20;12.80;;;10.90;99.90;;;;;;5012301;28;20455;-69
2022/09/29 09:52:15;;;;;;;14.20;12.83;;;11.00;99.90;;;;;;5017958;28;20476;-72
2022/09/29 09:55:17;;;;;;;14.73;13.20;;;11.10;99.90;;;;;;5019531;28;20467;-71
2022/09/29 09:58:21;;;;;;;14.03;12.60;;;11.10;99.90;;;;;;5019811;28;20487;-72
2022/09/29 10:01:13;;;;;;;13.83;12.43;;;11.20;99.90;;;;;;5023660;28;20451;-70
2022/09/29 10:04:02;;;;;;;13.13;11.83;;;11.40;99.90;;;;;;5022312;28;20463;-69
2022/09/29 10:06:56;;;;;;;12.30;11.10;;;11.50;99.90;;;;;;5027741;28;21018;-70
2022/09/29 10:09:47;;;;;;;12.57;11.43;;;11.60;99.90;;;;;;5020642;28;20466;-70
2022/09/29 10:12:42;;;;;;;12.67;11.37;;;11.70;99.90;;;;;;5021601;28;20593;-70
2022/09/29 10:15:36;;;;;;;14.33;13.00;;;11.80;99.90;;;;;;5026244;28;20546;-70
2022/09/29 10:18:36;;;;;;;14.50;13.20;;;11.80;99.90;;;;;;5024067;28;20447;-70
2022/09/29 10:21:40;;;;;;;12.80;11.50;;;11.90;99.90;;;;;;5027663;28;20440;-70
2022/09/29 10:24:32;;;;;;;13.30;12.10;;;12.00;99.90;;;;;;5019982;28;20879;-70
2022/09/29 10:27:36;;;;;;;13.40;12.10;;;12.10;99.90;;;;;;5021036;28;20502;-70
2022/09/29 10:30:35;;;;;;;11.70;10.60;;;12.10;99.90;;;;;;5023513;28;20791;-71
2022/09/29 10:33:30;;;;;;;13.13;11.80;;;12.10;99.90;;;;;;5023707;28;20529;-70
2022/09/29 10:36:22;;;;;;;12.13;11.03;;;12.10;99.90;;;;;;5026839;28;20475;-70
2022/09/29 10:39:32;;;;;;;12.40;11.20;;;12.10;99.90;;;;;;5024916;28;20519;-70
2022/09/29 10:42:27;;;;;;;11.97;10.87;;;12.10;99.90;;;;;;5023532;28;20463;-70
2022/09/29 10:45:21;;;;;;;13.60;11.87;;;12.10;99.90;;;;;;5015038;28;20962;-71
2022/09/29 10:48:17;;;;;;;12.30;11.20;;;12.00;99.90;;;;;;5026225;28;20857;-70
2022/09/29 10:51:29;;;;;;;12.20;11.00;;;12.00;99.90;;;;;;5023606;28;20459;-70
2022/09/29 10:54:30;;;;;;;12.13;10.53;;;12.00;99.90;;;;;;5024617;28;20456;-70
2022/09/29 10:57:26;;;;;;;11.33;10.23;;;12.00;99.90;;;;;;5022647;28;21041;-71
2022/09/29 11:00:34;;;;;;;11.00;10.00;;;12.00;99.90;;;;;;5025472;28;21035;-71
2022/09/29 11:03:29;;;;;;;11.40;10.33;;;11.90;99.90;;;;;;5026899;28;20451;-71
2022/09/29 11:06:31;;;;;;;10.40;9.27;;;11.90;99.90;;;;;;5024168;28;20952;-70
2022/09/29 11:09:40;;;;;;;11.07;9.97;;;12.00;99.90;;;;;;5024428;28;20451;-70
2022/09/29 11:12:38;;;;;;;10.70;9.60;;;12.00;99.90;;;;;;5026153;28;20493;-70
2022/09/29 11:15:42;;;;;;;11.47;10.30;;;12.00;99.90;;;;;;5014648;28;21068;-71
2022/09/29 11:18:36;;;;;;;10.37;9.27;;;12.00;99.90;;;;;;5018341;28;21692;-70
2022/09/29 11:22:03;;;;;;;13.03;8.90;;;12.00;99.90;;;;;;5027937;28;20461;-70
2022/09/29 11:25:31;;;;;;;10.50;9.47;;;12.00;99.90;;;;;;5019585;28;20881;-70
2022/09/29 11:28:48;;;;;;;10.20;9.20;;;12.00;99.90;;;;;;5023762;28;20505;-70
2022/09/29 11:31:45;;;;;;;18.23;16.07;;;12.00;99.90;;;;;;5021677;28;21017;-70
2022/09/29 11:34:47;;;;;;;13.50;12.10;;;12.00;99.90;;;;;;5044458;28;20620;-70
2022/09/29 11:37:52;;;;;;;12.30;10.50;;;12.00;99.90;;;;;;5039962;28;20532;-70
2022/09/29 11:41:00;;;;;;;11.50;10.30;;;12.00;99.90;;;;;;5044865;28;20453;-70
2022/09/29 11:43:54;;;;;;;12.07;10.87;;;12.10;99.90;;;;;;5042594;28;20829;-71
2022/09/29 11:46:54;;;;;;;11.03;9.83;;;12.10;99.90;;;;;;5033297;28;20490;-70
2022/09/29 11:50:02;;;;;;;11.43;9.30;;;12.10;99.90;;;;;;5041061;28;20450;-70
2022/09/29 11:53:06;;;;;;;9.80;8.80;;;12.10;99.90;;;;;;5036834;28;20469;-70
2022/09/29 11:56:27;;;;;;;9.97;8.60;;;12.20;99.90;;;;;;5035138;28;20611;-71
2022/09/29 11:59:43;;;;;;;10.90;9.80;;;12.20;99.90;;;;;;5044180;28;20540;-73
2022/09/29 12:03:17;;;;;;;10.37;9.37;;;12.20;99.90;;;;;;5041266;28;20449;-72
2022/09/29 12:06:40;;;;;;;9.40;8.50;;;12.10;99.90;;;;;;5041395;28;20482;-72
2022/09/29 12:09:56;;;;;;;9.17;8.33;;;12.10;99.90;;;;;;5029953;28;20523;-72
2022/09/29 12:13:08;;;;;;;9.77;8.77;;;12.10;99.90;;;;;;5042488;28;20994;-73
2022/09/29 12:16:06;;;;;;;9.77;8.87;;;12.10;99.90;;;;;;5030789;28;20990;-72
2022/09/29 12:19:01;;;;;;;9.53;8.67;;;12.20;99.90;;;;;;5035535;28;20451;-73
2022/09/29 12:21:59;;;;;;;11.00;9.90;;;12.20;99.90;;;;;;5032486;28;20535;-73
2022/09/29 12:24:54;;;;;;;9.30;8.40;;;12.10;99.90;;;;;;5034962;28;20627;-75
2022/09/29 12:27:48;;;;;;;8.70;7.90;;;12.20;99.90;;;;;;5023697;28;20495;-74
2022/09/29 12:30:53;;;;;;;9.70;8.80;;;12.10;99.90;;;;;;5019528;28;20463;-73
2022/09/29 12:33:54;;;;;;;8.60;7.80;;;12.10;99.90;;;;;;5024920;28;20523;-72
2022/09/29 12:36:52;;;;;;;8.43;7.70;;;12.20;99.90;;;;;;5037352;28;20478;-71
2022/09/29 12:39:47;;;;;;;8.80;8.00;;;12.20;99.90;;;;;;5041928;28;20504;-72
2022/09/29 12:42:59;;;;;;;6.80;6.20;;;12.20;99.90;;;;;;5036678;28;20984;-73
2022/09/29 12:45:55;;;;;;;6.20;5.70;;;12.30;99.90;;;;;;5040585;28;21000;-71
2022/09/29 12:48:57;;;;;;;7.10;5.87;;;12.40;99.90;;;;;;5043908;28;20586;-72
2022/09/29 12:51:52;;;;;;;6.07;5.57;;;12.40;99.90;;;;;;5038861;28;20865;-72
2022/09/29 12:54:52;;;;;;;6.13;5.70;;;12.40;99.90;;;;;;5036861;28;20585;-71
2022/09/29 12:57:43;;;;;;;6.23;5.73;;;12.40;99.90;;;;;;5044828;28;20486;-71
2022/09/29 13:00:35;;;;;;;6.40;5.90;;;12.50;99.90;;;;;;5039846;28;20468;-71
2022/09/29 13:03:54;;;;;;;6.50;5.90;;;12.50;99.90;;;;;;5043005;28;21026;-71
2022/09/29 13:06:57;;;;;;;7.50;6.90;;;12.50;99.90;;;;;;5036240;28;20649;-72
2022/09/29 13:10:21;;;;;;;8.10;7.40;;;12.50;99.90;;;;;;5033488;28;20654;-72
2022/09/29 13:13:50;;;;;;;7.60;7.00;;;12.50;99.90;;;;;;5043342;28;20474;-72
2022/09/29 13:16:59;;;;;;;8.53;7.90;;;12.40;99.90;;;;;;5041578;28;20478;-72
2022/09/29 13:20:20;;;;;;;9.60;8.80;;;12.40;99.90;;;;;;5035297;28;20975;-70
2022/09/29 13:23:57;;;;;;;10.20;9.40;;;12.40;99.90;;;;;;5037118;28;20457;-70
2022/09/29 13:27:10;;;;;;;9.37;8.57;;;12.40;99.90;;;;;;4932804;28;20520;-71
2022/09/29 13:30:08;;;;;;;9.90;9.00;;;12.40;99.90;;;;;;4986717;28;20468;-70
2022/09/29 13:33:07;;;;;;;10.87;9.87;;;12.30;99.90;;;;;;5028582;28;20496;-71
2022/09/29 13:35:58;;;;;;;9.93;9.03;;;12.40;99.90;;;;;;5032337;28;20486;-71
2022/09/29 13:38:55;;;;;;;11.07;10.00;;;12.30;99.90;;;;;;5038018;28;20455;-69
2022/09/29 13:41:44;;;;;;;10.57;9.67;;;12.30;99.90;;;;;;5047498;28;20454;-70
2022/09/29 13:44:33;;;;;;;11.70;10.53;;;12.20;99.90;;;;;;5040601;28;20981;-70
2022/09/29 13:47:34;;;;;;;11.63;10.50;;;12.20;99.90;;;;;;5029081;28;20494;-69
2022/09/29 13:50:43;;;;;;;12.50;11.47;;;12.10;99.90;;;;;;5022406;28;20459;-69
2022/09/29 13:53:43;;;;;;;12.70;11.60;;;12.10;99.90;;;;;;5027580;28;20483;-69
2022/09/29 13:56:31;;;;;;;13.03;11.30;;;12.10;99.90;;;;;;5021998;28;21040;-70
2022/09/29 13:59:23;;;;;;;13.30;12.07;;;12.10;99.90;;;;;;5025463;28;20463;-69
2022/09/29 14:02:30;;;;;;;12.43;11.10;;;12.10;99.90;;;;;;5021081;28;20459;-69
2022/09/29 14:05:48;;;;;;;12.80;11.40;;;12.00;99.90;;;;;;5022943;28;20471;-69
2022/09/29 14:08:45;;;;;;;13.07;11.77;;;12.00;99.90;;;;;;5025459;28;20459;-70
2022/09/29 14:11:41;;;;;;;13.70;12.40;;;11.90;99.90;;;;;;5021647;28;20474;-70
2022/09/29 14:14:34;;;;;;;12.57;11.37;;;11.90;99.90;;;;;;5024342;28;20860;-70
2022/09/29 14:17:31;;;;;;;12.60;11.50;;;11.90;99.90;;;;;;5044805;28;20497;-69
2022/09/29 14:20:23;;;;;;;12.73;11.53;;;11.90;99.90;;;;;;5045806;28;20457;-69
2022/09/29 14:23:13;;;;;;;12.50;11.40;;;11.90;99.90;;;;;;5045009;28;20453;-69
2022/09/29 14:26:09;;;;;;;13.23;12.03;;;11.90;99.90;;;;;;5047204;28;20481;-69
2022/09/29 14:29:02;;;;;;;12.90;11.80;;;11.90;99.90;;;;;;5044699;28;20450;-69
2022/09/29 14:31:59;;;;;;;14.40;13.10;;;11.90;99.90;;;;;;5043641;28;20447;-70
2022/09/29 14:34:53;;;;;;;15.63;14.20;;;11.90;99.90;;;;;;5044472;28;20470;-70
2022/09/29 14:37:41;;;;;;;13.50;12.23;;;12.00;99.90;;;;;;5035562;28;20504;-69
2022/09/29 14:40:35;;;;;;;14.60;12.97;;;12.00;99.90;;;;;;5040033;28;20461;-71
2022/09/29 14:43:38;;;;;;;15.40;13.97;;;12.10;99.90;;;;;;5046884;28;20443;-71
2022/09/29 14:53:51;;;;;;;14.23;12.93;;;12.10;99.90;;;;;;5039769;28;20494;-70
2022/09/29 14:56:51;;;;;;;17.03;15.37;;;12.10;99.90;;;;;;5038605;28;21005;-69
2022/09/29 14:59:56;;;;;;;15.13;13.73;;;12.20;99.90;;;;;;5041875;28;20482;-70
2022/09/29 15:02:51;;;;;;;14.90;13.40;;;12.20;99.90;;;;;;5037219;28;20449;-70
2022/09/29 15:06:09;;;;;;;15.20;13.80;;;12.20;99.90;;;;;;5042274;28;20889;-69
2022/09/29 15:09:01;;;;;;;14.80;13.30;;;12.10;99.90;;;;;;5039216;28;20459;-70
2022/09/29 15:12:03;;;;;;;13.90;12.67;;;12.10;99.90;;;;;;5035332;28;20819;-70
2022/09/29 15:15:00;;;;;;;14.20;12.90;;;12.10;99.90;;;;;;5038554;28;21300;-70
2022/09/29 15:17:54;;;;;;;13.23;12.03;;;12.10;99.90;;;;;;5034708;28;20532;-69
2022/09/29 15:20:58;;;;;;;15.60;12.83;;;12.10;99.90;;;;;;5041188;28;20451;-69
2022/09/29 15:24:19;;;;;;;13.30;12.10;;;12.10;99.90;;;;;;5033575;28;20440;-70
2022/09/29 15:27:17;;;;;;;12.87;11.73;;;12.10;99.90;;;;;;5021155;28;20476;-69
2022/09/29 15:30:23;;;;;;;14.37;13.00;;;12.10;99.90;;;;;;5020036;28;20463;-70
2022/09/29 15:33:33;;;;;;;13.10;11.93;;;12.10;99.90;;;;;;5020193;28;20451;-70
2022/09/29 15:36:30;;;;;;;14.37;13.00;;;12.10;99.90;;;;;;5019708;28;21053;-70
2022/09/29 15:39:45;;;;;;;13.50;12.20;;;12.10;99.90;;;;;;5018762;28;20452;-70
2022/09/29 15:42:38;;;;;;;13.50;12.20;;;12.10;99.90;;;;;;5019392;28;20580;-70
2022/09/29 15:45:28;;;;;;;12.47;11.33;;;12.10;99.90;;;;;;5022079;28;20478;-70
2022/09/29 15:48:28;;;;;;;13.70;12.50;;;12.10;99.90;;;;;;5039218;28;20524;-70
2022/09/29 15:51:20;;;;;;;13.90;12.50;;;12.00;99.90;;;;;;5039039;28;20450;-71
2022/09/29 15:54:12;;;;;;;13.83;12.63;;;12.00;99.90;;;;;;5041059;28;20487;-70
2022/09/29 16:00:55;;;;;;;14.57;13.07;;;12.00;99.90;;;;;;5017469;28;20451;-71
2022/09/29 16:03:53;;;;;;;13.70;12.30;;;12.00;99.90;;;;;;5021101;28;20446;-70
2022/09/29 16:06:49;;;;;;;14.80;13.33;;;11.90;99.90;;;;;;5018802;28;20487;-70
2022/09/29 16:09:39;;;;;;;14.20;12.67;;;11.90;99.90;;;;;;5022678;28;20452;-71
2022/09/29 16:12:31;;;;;;;13.57;12.27;;;11.90;99.90;;;;;;5013164;28;20460;-71
2022/09/29 16:15:26;;;;;;;13.20;11.90;;;11.90;99.90;;;;;;5016563;28;20468;-70
2022/09/29 16:18:25;;;;;;;13.97;12.50;;;11.90;99.90;;;;;;5019916;28;21008;-71
2022/09/29 16:21:18;;;;;;;14.40;13.00;;;11.90;99.90;;;;;;5018089;28;20464;-70
2022/09/29 16:24:17;;;;;;;13.10;11.80;;;11.90;99.90;;;;;;5022422;28;20448;-70
2022/09/29 16:27:41;;;;;;;13.20;11.90;;;11.80;99.90;;;;;;5017602;28;20484;-69
2022/09/29 16:30:34;;;;;;;11.50;10.40;;;11.80;99.90;;;;;;5021841;28;20478;-70